createdAt,value
2018-06-05T00:00:29.248Z,40.77
2018-06-05T00:02:57.692Z,37.73
2018-06-05T00:05:26.204Z,38.67
2018-06-05T00:07:54.692Z,35.90
2018-06-05T00:10:23.156Z,37.67
2018-06-05T00:12:51.588Z,35.47
2018-06-05T00:15:20.039Z,40.13
2018-06-05T00:17:48.229Z,37.10
2018-06-05T00:20:16.700Z,36.60
2018-06-05T00:22:45.131Z,40.80
2018-06-05T00:25:13.580Z,40.70
2018-06-05T00:27:41.998Z,33.80
2018-06-05T00:30:10.440Z,40.63
2018-06-05T00:32:38.868Z,42.60
2018-06-05T00:35:07.334Z,39.40
2018-06-05T00:37:35.785Z,46.13
2018-06-05T00:40:04.604Z,39.60
2018-06-05T00:42:33.063Z,36.93
2018-06-05T00:45:01.537Z,38.43
2018-06-05T00:47:29.992Z,41.53
2018-06-05T00:49:58.454Z,40.10
2018-06-05T00:52:26.867Z,37.43
2018-06-05T00:54:55.309Z,41.07
2018-06-05T00:57:23.760Z,37.40
2018-06-05T00:59:52.192Z,36.70
2018-06-05T01:02:20.656Z,39.47
2018-06-05T01:04:49.072Z,43.90
2018-06-05T01:07:17.533Z,40.70
2018-06-05T01:09:45.627Z,42.10
2018-06-05T01:12:14.061Z,48.30
2018-06-05T01:14:42.516Z,47.10
2018-06-05T01:17:10.936Z,40.33
2018-06-05T01:19:39.720Z,45.77
2018-06-05T01:22:08.170Z,51.03
2018-06-05T01:24:36.661Z,52.20
2018-06-05T01:27:05.194Z,53.70
2018-06-05T01:29:33.638Z,49.07
2018-06-05T01:32:02.073Z,53.07
2018-06-05T01:34:30.539Z,50.27
2018-06-05T01:36:58.973Z,52.43
2018-06-05T01:39:27.401Z,53.50
2018-06-05T01:41:55.867Z,53.87
2018-06-05T01:44:24.295Z,63.70
2018-06-05T01:46:52.745Z,63.67
2018-06-05T01:49:21.162Z,82.87
2018-06-05T01:51:49.608Z,82.33
2018-06-05T01:54:18.040Z,72.10
2018-06-05T01:56:46.494Z,79.70
2018-06-05T01:59:14.907Z,85.50
2018-06-05T02:01:43.365Z,85.73
2018-06-05T02:04:11.825Z,89.07
2018-06-05T02:06:40.248Z,92.63
2018-06-05T02:09:08.696Z,89.07
2018-06-05T02:11:37.116Z,79.10
2018-06-05T02:14:05.596Z,92.57
2018-06-05T02:16:34.070Z,95.73
2018-06-05T02:19:02.496Z,79.13
2018-06-05T02:21:30.957Z,106.40
2018-06-05T02:23:59.380Z,93.50
2018-06-05T02:26:27.873Z,88.33
2018-06-05T02:28:56.315Z,78.27
2018-06-05T02:31:24.758Z,85.87
2018-06-05T02:33:53.257Z,90.37
2018-06-05T02:36:21.700Z,86.53
2018-06-05T02:38:50.155Z,83.87
2018-06-05T02:41:18.575Z,79.27
2018-06-05T02:43:47.034Z,79.07
2018-06-05T02:46:15.465Z,80.00
2018-06-05T02:48:43.937Z,88.70
2018-06-05T02:51:12.362Z,83.63
2018-06-05T02:53:40.801Z,86.53
2018-06-05T02:56:09.265Z,87.13
2018-06-05T02:58:37.724Z,82.50
2018-06-05T03:01:06.167Z,89.23
2018-06-05T03:03:34.620Z,87.03
2018-06-05T03:06:03.088Z,93.47
2018-06-05T03:08:31.550Z,88.53
2018-06-05T03:10:59.979Z,94.47
2018-06-05T03:13:28.430Z,95.70
2018-06-05T03:15:56.853Z,97.30
2018-06-05T03:18:25.309Z,117.63
2018-06-05T03:20:53.737Z,106.87
2018-06-05T03:23:22.283Z,108.00
2018-06-05T03:25:51.595Z,114.93
2018-06-05T03:28:20.065Z,109.50
2018-06-05T03:30:48.485Z,137.43
2018-06-05T03:33:16.948Z,115.93
2018-06-05T03:35:45.376Z,115.13
2018-06-05T03:38:13.834Z,119.67
2018-06-05T03:40:42.268Z,120.27
2018-06-05T03:43:10.725Z,134.90
2018-06-05T03:45:39.162Z,124.97
2018-06-05T03:48:07.617Z,129.23
2018-06-05T03:50:36.100Z,123.27
2018-06-05T03:53:04.540Z,132.50
2018-06-05T03:55:32.991Z,124.07
2018-06-05T03:58:01.416Z,134.00
2018-06-05T04:00:29.888Z,129.03
2018-06-05T04:02:58.364Z,126.23
2018-06-05T04:05:27.617Z,126.13
2018-06-05T04:07:56.087Z,139.20
2018-06-05T04:10:24.564Z,143.43
2018-06-05T04:12:53.005Z,136.20
2018-06-05T04:15:21.504Z,145.53
2018-06-05T04:17:49.970Z,137.43
2018-06-05T04:20:18.484Z,127.47
2018-06-05T04:22:46.933Z,130.60
2018-06-05T04:25:15.424Z,139.40
2018-06-05T04:27:43.861Z,148.67
2018-06-05T04:30:12.293Z,136.30
2018-06-05T04:32:40.744Z,123.50
2018-06-05T04:35:09.165Z,145.60
2018-06-05T04:37:37.616Z,128.93
2018-06-05T04:40:06.095Z,126.10
2018-06-05T04:42:34.556Z,138.93
2018-06-05T04:45:02.990Z,109.10
2018-06-05T04:47:31.465Z,133.47
2018-06-05T04:49:59.893Z,150.60
2018-06-05T04:52:28.321Z,120.87
2018-06-05T04:54:56.810Z,129.47
2018-06-05T04:57:25.237Z,130.30
2018-06-05T04:59:53.706Z,142.00
2018-06-05T05:02:22.149Z,133.27
2018-06-05T05:04:50.651Z,143.60
2018-06-05T05:07:19.100Z,146.70
2018-06-05T05:09:47.568Z,136.90
2018-06-05T05:12:16.005Z,131.83
2018-06-05T05:14:44.450Z,143.87
2018-06-05T05:17:12.936Z,140.40
2018-06-05T05:19:41.378Z,130.90
2018-06-05T05:22:09.845Z,131.10
2018-06-05T05:24:38.359Z,142.57
2018-06-05T05:27:06.524Z,146.33
2018-06-05T05:29:35.057Z,144.47
2018-06-05T05:32:03.588Z,150.27
2018-06-05T05:34:32.018Z,161.30
2018-06-05T05:37:00.505Z,152.60
2018-06-05T05:39:28.940Z,155.37
2018-06-05T05:41:57.434Z,152.03
2018-06-05T05:44:25.869Z,148.03
2018-06-05T05:46:54.320Z,145.27
2018-06-05T05:49:22.803Z,153.07
2018-06-05T05:51:51.251Z,132.57
2018-06-05T05:54:19.730Z,155.20
2018-06-05T05:56:48.194Z,146.73
2018-06-05T05:59:16.677Z,144.83
2018-06-05T06:01:45.144Z,163.83
2018-06-05T06:04:13.609Z,123.57
2018-06-05T06:06:42.037Z,134.67
2018-06-05T06:09:10.589Z,135.07
2018-06-05T06:11:39.142Z,132.77
2018-06-05T06:14:07.577Z,126.63
2018-06-05T06:16:36.034Z,140.30
2018-06-05T06:19:04.544Z,131.60
2018-06-05T06:21:33.093Z,118.87
2018-06-05T06:24:01.891Z,134.37
2018-06-05T06:26:30.389Z,119.60
2018-06-05T06:28:58.889Z,118.87
2018-06-05T06:31:27.323Z,125.27
2018-06-05T06:33:55.816Z,118.03
2018-06-05T06:36:24.234Z,114.37
2018-06-05T06:38:52.701Z,115.80
2018-06-05T06:41:21.151Z,127.57
2018-06-05T06:43:49.633Z,110.33
2018-06-05T06:46:18.103Z,126.30
2018-06-05T06:48:46.611Z,139.37
2018-06-05T06:51:15.010Z,126.47
2018-06-05T06:53:43.484Z,118.90
2018-06-05T06:56:11.934Z,112.37
2018-06-05T06:58:40.368Z,109.43
2018-06-05T07:01:08.843Z,125.43
2018-06-05T07:03:37.340Z,108.77
2018-06-05T07:06:05.897Z,110.80
2018-06-05T07:08:34.372Z,107.93
2018-06-05T07:11:02.829Z,108.80
2018-06-05T07:13:31.278Z,94.80
2018-06-05T07:15:59.758Z,100.57
2018-06-05T07:18:28.203Z,90.33
2018-06-05T07:20:56.681Z,94.33
2018-06-05T07:23:25.099Z,90.30
2018-06-05T07:25:53.791Z,99.20
2018-06-05T07:28:22.257Z,93.00
2018-06-05T07:30:50.896Z,94.63
2018-06-05T07:33:19.345Z,99.17
2018-06-05T07:35:47.798Z,86.93
2018-06-05T07:38:16.248Z,99.53
2018-06-05T07:40:44.703Z,92.97
2018-06-05T07:43:13.164Z,88.77
2018-06-05T07:45:41.597Z,80.60
2018-06-05T07:48:10.064Z,91.63
2018-06-05T07:50:38.499Z,78.10
2018-06-05T07:53:07.972Z,101.77
2018-06-05T07:55:36.437Z,90.00
2018-06-05T07:58:04.941Z,80.67
2018-06-05T08:00:33.375Z,81.27
2018-06-05T08:03:01.831Z,72.30
2018-06-05T08:05:30.287Z,81.20
2018-06-05T08:07:58.742Z,72.80
2018-06-05T08:10:27.221Z,70.80
2018-06-05T08:12:55.651Z,80.13
2018-06-05T08:15:24.105Z,80.53
2018-06-05T08:17:52.537Z,78.63
2018-06-05T08:20:21.457Z,73.83
2018-06-05T08:22:52.912Z,66.60
2018-06-05T08:25:21.417Z,70.00
2018-06-05T08:27:49.863Z,68.97
2018-06-05T08:30:18.365Z,69.40
2018-06-05T08:32:46.796Z,72.07
2018-06-05T08:35:15.295Z,78.03
2018-06-05T08:37:43.736Z,68.67
2018-06-05T08:40:12.183Z,75.37
2018-06-05T08:42:40.653Z,74.93
2018-06-05T08:45:09.135Z,83.30
2018-06-05T08:47:37.603Z,77.90
2018-06-05T08:50:06.109Z,71.93
2018-06-05T08:52:34.594Z,77.47
2018-06-05T08:55:03.063Z,63.50
2018-06-05T08:57:31.522Z,70.10
2018-06-05T09:00:00.141Z,75.63
2018-06-05T09:02:28.540Z,74.70
2018-06-05T09:04:57.000Z,72.20
2018-06-05T09:07:25.464Z,70.90
2018-06-05T09:09:53.920Z,72.83
2018-06-05T09:12:22.387Z,72.20
2018-06-05T09:14:50.847Z,74.07
2018-06-05T09:17:19.399Z,64.93
2018-06-05T09:19:47.990Z,73.07
2018-06-05T09:22:16.547Z,88.80
2018-06-05T09:24:45.159Z,81.63
2018-06-05T09:27:13.766Z,69.27
2018-06-05T09:29:41.957Z,76.87
2018-06-05T09:32:10.558Z,78.50
2018-06-05T09:34:39.142Z,76.33
2018-06-05T09:37:07.789Z,81.50
2018-06-05T09:39:36.434Z,72.10
2018-06-05T09:42:04.957Z,80.10
2018-06-05T09:44:33.676Z,87.70
2018-06-05T09:47:02.259Z,79.13
2018-06-05T09:49:30.891Z,72.63
2018-06-05T09:51:59.503Z,82.07
2018-06-05T09:54:28.088Z,73.70
2018-06-05T09:56:56.747Z,74.93
2018-06-05T09:59:25.387Z,77.17
2018-06-05T10:01:53.938Z,82.80
2018-06-05T10:04:22.482Z,78.03
2018-06-05T10:06:51.102Z,80.10
2018-06-05T10:09:19.699Z,82.90
2018-06-05T10:11:48.302Z,85.87
2018-06-05T10:14:16.919Z,82.17
2018-06-05T10:16:45.507Z,72.93
2018-06-05T10:19:14.103Z,79.40
2018-06-05T10:21:42.747Z,79.40
2018-06-05T10:24:11.376Z,75.60
2018-06-05T10:26:39.939Z,68.47
2018-06-05T10:29:09.552Z,80.73
2018-06-05T10:31:38.162Z,64.00
2018-06-05T10:34:06.748Z,66.03
2018-06-05T10:36:35.433Z,75.30
2018-06-05T10:39:06.045Z,76.57
2018-06-05T10:41:34.866Z,75.33
2018-06-05T10:44:03.721Z,77.47
2018-06-05T10:46:32.314Z,68.13
2018-06-05T10:49:00.883Z,65.77
2018-06-05T10:51:29.496Z,72.13
2018-06-05T10:53:58.083Z,62.10
2018-06-05T10:56:26.638Z,68.53
2018-06-05T10:58:55.232Z,66.20
2018-06-05T11:01:23.861Z,71.57
2018-06-05T11:03:52.438Z,67.33
2018-06-05T11:06:20.996Z,63.27
2018-06-05T11:08:49.599Z,70.60
2018-06-05T11:11:18.203Z,77.93
2018-06-05T11:13:46.762Z,72.37
2018-06-05T11:16:15.386Z,77.40
2018-06-05T11:18:43.944Z,72.90
2018-06-05T11:21:12.854Z,71.97
2018-06-05T11:23:41.997Z,67.47
2018-06-05T11:26:10.584Z,74.03
2018-06-05T11:28:39.180Z,68.27
2018-06-05T11:31:07.789Z,63.00
2018-06-05T11:33:36.383Z,72.03
2018-06-05T11:36:05.024Z,68.70
2018-06-05T11:38:33.643Z,70.63
2018-06-05T11:41:02.208Z,73.03
2018-06-05T11:43:30.831Z,80.37
2018-06-05T11:45:59.422Z,70.37
2018-06-05T11:48:27.984Z,59.23
2018-06-05T11:50:56.593Z,72.83
2018-06-05T11:53:25.307Z,68.17
2018-06-05T11:55:53.941Z,72.77
2018-06-05T11:58:22.428Z,74.30
2018-06-05T12:00:50.910Z,77.77
2018-06-05T12:03:19.344Z,80.93
2018-06-05T12:05:47.832Z,80.30
2018-06-05T12:08:16.261Z,78.47
2018-06-05T12:10:44.712Z,70.13
2018-06-05T12:13:13.173Z,64.83
2018-06-05T12:15:41.593Z,77.17
2018-06-05T12:18:10.057Z,81.03
2018-06-05T12:20:38.521Z,72.10
2018-06-05T12:23:06.982Z,77.10
2018-06-05T12:25:35.471Z,67.63
2018-06-05T12:28:03.913Z,75.97
2018-06-05T12:30:32.402Z,72.10
2018-06-05T12:33:00.876Z,73.17
2018-06-05T12:35:29.316Z,75.20
2018-06-05T12:37:57.760Z,79.53
2018-06-05T12:40:26.228Z,73.80
2018-06-05T12:42:54.693Z,86.10
2018-06-05T12:45:23.161Z,80.60
2018-06-05T12:47:51.597Z,78.40
2018-06-05T12:50:20.026Z,72.73
2018-06-05T12:52:48.511Z,82.60
2018-06-05T12:55:16.959Z,79.83
2018-06-05T12:57:45.104Z,81.43
2018-06-05T13:00:13.575Z,70.43
2018-06-05T13:02:42.145Z,75.80
2018-06-05T13:05:10.581Z,86.93
2018-06-05T13:07:39.049Z,77.73
2018-06-05T13:10:07.511Z,88.37
2018-06-05T13:12:35.952Z,88.13
2018-06-05T13:15:04.480Z,85.60
2018-06-05T13:17:32.927Z,87.27
2018-06-05T13:20:01.453Z,93.40
2018-06-05T13:22:29.906Z,78.70
2018-06-05T13:24:58.332Z,81.50
2018-06-05T13:27:26.795Z,75.17
2018-06-05T13:29:55.276Z,77.17
2018-06-05T13:32:23.757Z,83.70
2018-06-05T13:34:52.219Z,83.07
2018-06-05T13:37:20.680Z,86.10
2018-06-05T13:39:49.106Z,77.43
2018-06-05T13:42:17.248Z,80.60
2018-06-05T13:44:45.695Z,74.57
2018-06-05T13:47:14.153Z,74.33
2018-06-05T13:49:42.624Z,78.87
2018-06-05T13:52:11.095Z,74.40
2018-06-05T13:54:39.562Z,73.73
2018-06-05T13:57:08.024Z,86.80
2018-06-05T13:59:36.492Z,69.73
2018-06-05T14:02:04.987Z,73.87
2018-06-05T14:04:33.457Z,74.03
2018-06-05T14:07:01.920Z,80.97
2018-06-05T14:09:30.347Z,81.27
2018-06-05T14:11:58.809Z,80.90
2018-06-05T14:14:27.261Z,77.63
2018-06-05T14:16:55.703Z,82.47
2018-06-05T14:19:24.144Z,81.43
2018-06-05T14:21:52.578Z,75.30
2018-06-05T14:24:21.056Z,73.90
2018-06-05T14:26:49.509Z,79.63
2018-06-05T14:29:17.964Z,76.53
2018-06-05T14:31:46.442Z,78.73
2018-06-05T14:34:14.895Z,66.93
2018-06-05T14:36:43.365Z,73.93
2018-06-05T14:39:11.830Z,75.47
2018-06-05T14:41:40.372Z,71.63
2018-06-05T14:44:08.817Z,67.90
2018-06-05T14:46:37.314Z,66.83
2018-06-05T14:49:05.806Z,74.83
2018-06-05T14:51:34.235Z,84.80
2018-06-05T14:54:02.720Z,71.33
2018-06-05T14:56:31.182Z,73.47
2018-06-05T14:58:59.664Z,72.73
2018-06-05T15:01:28.103Z,75.50
2018-06-05T15:03:56.540Z,78.03
2018-06-05T15:06:24.984Z,74.30
2018-06-05T15:08:53.447Z,89.60
2018-06-05T15:11:21.885Z,78.67
2018-06-05T15:13:50.340Z,81.97
2018-06-05T15:16:18.783Z,84.17
2018-06-05T15:18:47.248Z,81.23
2018-06-05T15:21:15.670Z,73.27
2018-06-05T15:23:44.141Z,76.53
2018-06-05T15:26:12.569Z,82.23
2018-06-05T15:28:41.036Z,81.73
2018-06-05T15:31:09.464Z,81.27
2018-06-05T15:33:37.924Z,79.47
2018-06-05T15:36:06.353Z,94.33
2018-06-05T17:13:43.558Z,62.53
2018-06-05T17:16:12.017Z,67.67
2018-06-05T17:18:40.528Z,57.33
2018-06-05T17:21:09.265Z,61.20
2018-06-05T17:23:38.228Z,67.70
2018-06-05T17:26:07.251Z,67.13
2018-06-05T17:28:36.237Z,61.33
2018-06-05T17:31:05.446Z,57.40
2018-06-05T17:36:33.397Z,55.07
2018-06-05T17:41:59.743Z,57.20
2018-06-05T17:44:28.494Z,56.40
2018-06-05T17:46:57.012Z,60.40
2018-06-05T17:49:25.515Z,60.43
2018-06-05T17:51:54.073Z,62.17
2018-06-05T17:54:22.540Z,70.40
2018-06-05T18:04:07.169Z,53.03
2018-06-05T18:06:36.311Z,51.00
2018-06-05T18:09:07.856Z,50.90
2018-06-05T18:11:36.910Z,55.70
2018-06-05T18:14:05.424Z,50.20
2018-06-05T18:16:34.665Z,50.10
2018-06-05T18:19:04.134Z,44.27
2018-06-05T18:21:32.763Z,49.00
2018-06-05T18:24:01.320Z,53.07
2018-06-05T18:26:29.942Z,53.13
2018-06-05T18:28:58.447Z,52.87
2018-06-05T18:31:26.966Z,51.53
2018-06-05T18:33:55.476Z,54.17
2018-06-05T18:36:23.900Z,52.37
2018-06-05T18:38:52.368Z,59.20
2018-06-05T18:41:20.821Z,47.77
2018-06-05T18:43:49.377Z,48.37
2018-06-05T18:46:18.042Z,46.17
2018-06-05T18:48:46.540Z,48.70
2018-06-05T18:51:14.989Z,48.53
2018-06-05T18:53:45.617Z,47.03
2018-06-05T18:56:14.101Z,52.23
2018-06-05T18:58:42.581Z,44.00
2018-06-05T19:01:11.038Z,49.93
2018-06-05T19:03:39.544Z,51.33
2018-06-05T19:06:08.009Z,54.63
2018-06-05T19:08:36.533Z,47.70
2018-06-05T19:11:04.997Z,45.60
2018-06-05T19:13:42.412Z,41.30
2018-06-05T19:16:16.859Z,43.03
2018-06-05T19:18:45.713Z,47.67
2018-06-05T19:21:14.701Z,44.50
2018-06-05T19:23:43.529Z,45.63
2018-06-05T19:26:12.434Z,42.13
2018-06-05T19:28:41.819Z,49.83
2018-06-05T19:31:10.827Z,48.87
2018-06-05T19:38:04.491Z,45.27
2018-06-05T19:40:57.471Z,49.27
2018-06-05T19:49:25.389Z,45.37
2018-06-05T19:51:53.869Z,51.23
2018-06-05T19:54:22.333Z,47.83
2018-06-05T19:56:50.836Z,53.10
2018-06-05T19:59:19.269Z,43.20
2018-06-05T20:01:47.684Z,48.03
2018-06-05T20:04:16.155Z,55.43
2018-06-05T20:06:44.609Z,50.53
2018-06-05T20:09:13.040Z,60.33
2018-06-05T20:11:41.505Z,48.53
2018-06-05T20:14:09.966Z,54.80
2018-06-05T20:16:38.433Z,44.23
2018-06-05T20:19:06.857Z,47.13
2018-06-05T20:21:35.329Z,52.23
2018-06-05T20:24:03.787Z,52.30
2018-06-05T20:26:32.463Z,47.67
2018-06-05T20:29:01.034Z,49.00
2018-06-05T20:31:29.456Z,56.93
2018-06-05T20:33:57.911Z,50.57
2018-06-05T20:36:26.354Z,50.50
2018-06-05T20:38:54.917Z,45.67
2018-06-05T20:41:23.353Z,43.60
2018-06-05T20:43:51.897Z,44.63
2018-06-05T20:46:20.372Z,55.00
2018-06-05T20:48:48.869Z,42.97
2018-06-05T20:51:17.305Z,48.27
2018-06-05T20:53:45.760Z,53.23
2018-06-05T20:56:14.236Z,48.57
2018-06-05T20:58:42.663Z,45.80
2018-06-05T21:01:11.114Z,46.47
2018-06-05T21:03:39.549Z,46.87
2018-06-05T21:06:08.005Z,49.87
2018-06-05T21:08:36.465Z,50.77
2018-06-05T21:11:04.913Z,51.00
2018-06-05T21:13:33.347Z,40.43
2018-06-05T21:16:01.499Z,46.60
2018-06-05T21:18:29.954Z,46.27
2018-06-05T21:20:58.392Z,53.00
2018-06-05T21:23:26.831Z,51.47
2018-06-05T21:25:55.310Z,48.93
2018-06-05T21:28:23.800Z,45.97
2018-06-05T21:30:52.229Z,52.70
2018-06-05T21:33:20.711Z,48.07
2018-06-05T21:35:49.233Z,56.93
2018-06-05T21:38:17.661Z,46.27
2018-06-05T21:40:46.113Z,46.87
2018-06-05T21:43:14.545Z,48.83
2018-06-05T21:45:43.032Z,45.30
2018-06-05T21:48:11.478Z,44.20
2018-06-05T21:50:40.000Z,44.10
2018-06-05T21:53:08.460Z,43.67
2018-06-05T21:55:36.900Z,48.87
2018-06-05T21:58:05.433Z,42.73
2018-06-05T22:00:33.990Z,46.70
2018-06-05T22:03:02.412Z,45.20
2018-06-05T22:05:30.886Z,41.67
2018-06-05T22:07:59.324Z,46.43
2018-06-05T22:10:27.774Z,50.10
2018-06-05T22:12:56.239Z,49.20
2018-06-05T22:15:24.670Z,48.93
2018-06-05T22:17:53.133Z,46.60
2018-06-05T22:20:21.569Z,50.97
2018-06-05T22:22:49.996Z,45.03
2018-06-05T22:25:18.434Z,48.73
2018-06-05T22:27:46.882Z,49.10
2018-06-05T22:30:15.347Z,42.80
2018-06-05T22:32:43.795Z,52.60
2018-06-05T22:35:12.216Z,42.53
2018-06-05T22:37:40.638Z,51.00
2018-06-05T22:40:09.104Z,44.47
2018-06-05T22:42:37.567Z,50.97
2018-06-05T22:45:06.033Z,53.43
2018-06-05T22:47:34.444Z,61.67
2018-06-05T22:50:02.905Z,50.27
2018-06-05T22:52:31.339Z,51.67
2018-06-05T22:54:59.760Z,48.33
2018-06-05T22:57:28.241Z,48.40
2018-06-05T22:59:56.685Z,57.63
2018-06-05T23:02:25.123Z,58.83
2018-06-05T23:04:53.584Z,45.03
2018-06-05T23:07:22.019Z,42.97
2018-06-05T23:09:50.512Z,48.47
2018-06-05T23:12:18.956Z,49.63
2018-06-05T23:14:47.374Z,49.33
2018-06-05T23:17:15.847Z,57.53
2018-06-05T23:19:44.287Z,54.53
2018-06-05T23:22:12.732Z,53.47
2018-06-05T23:24:41.189Z,54.67
2018-06-05T23:27:09.628Z,46.10
2018-06-05T23:29:38.110Z,57.60
2018-06-05T23:32:06.880Z,49.00
2018-06-05T23:34:35.414Z,55.07
2018-06-05T23:37:03.876Z,48.90
2018-06-05T23:39:32.313Z,55.10
2018-06-05T23:42:00.799Z,51.17
2018-06-05T23:44:29.256Z,46.40
2018-06-05T23:46:57.685Z,45.43
2018-06-05T23:49:26.134Z,51.80
2018-06-05T23:51:59.465Z,50.50
2018-06-05T23:54:28.096Z,45.07
2018-06-05T23:56:56.533Z,53.03
2018-06-05T23:59:25.009Z,47.43
